Al Jahrah, Kuwait
Current Conditions -  °F | °C
As of 10:55 PM on Tuesday 25 Nov 2014 (Local Time) from KQGV Reporting Station
Haze Haze  
Wind Chill: 59°   Ceiling: Unl
Heat Index: 59°   Visibility: 6mi
Dew Point: 54°   Wind: 12mph
Humidity: 82%   Direction: 320°NW
Pressure: 30.01"   Gusts: 17mph
Location:  29.33°N, 47.67°E
Report Text: KQGV 251955Z 32010G15KT 9000 BR FEW030 15/12 A3001 RMK SLPNO QNH1017 PA +382
Loading
Personal Weather Stations






























Interactive Weather Map New forecast layout! Learn more

10-Day Weather Forecast

Advertisements
Track Severe Weather on mobile